Time;durP1;ratioP1;P1;durP2;ratioP2;P2;SDS_P1;SDS_P2;PMS_P1;PMS_P2;Temp;Humidity;BMP_temperature;BMP_pressure;BME280_temperature;BME280_humidity;BME280_pressure;Samples;Min_cycle;Max_cycle;Signal;HPM_P1;HPM_P2
2023/06/16 00:00:43;;;;;;;10.20;6.30;;;;;;;;;;5064677;28;25078;-71
2023/06/16 00:03:09;;;;;;;12.65;6.43;;;;;;;;;;5059873;28;25062;-72
2023/06/16 00:05:35;;;;;;;10.15;5.60;;;;;;;;;;5050827;28;25159;-71
2023/06/16 00:08:03;;;;;;;11.48;5.88;;;;;;;;;;5049540;28;25131;-71
2023/06/16 00:10:29;;;;;;;13.57;6.95;;;;;;;;;;5058036;28;25104;-71
2023/06/16 00:12:55;;;;;;;10.68;6.32;;;;;;;;;;5064888;28;25479;-70
2023/06/16 00:15:21;;;;;;;10.63;6.18;;;;;;;;;;5058119;28;25080;-71
2023/06/16 00:17:49;;;;;;;12.10;6.53;;;;;;;;;;5054253;28;25054;-71
2023/06/16 00:20:19;;;;;;;11.27;5.88;;;;;;;;;;5064081;28;25066;-70
2023/06/16 00:22:47;;;;;;;8.95;6.20;;;;;;;;;;5050653;28;25090;-70
2023/06/16 00:25:13;;;;;;;13.68;6.00;;;;;;;;;;5063671;28;25130;-71
2023/06/16 00:27:39;;;;;;;12.23;6.43;;;;;;;;;;5047979;28;25150;-71
2023/06/16 00:30:05;;;;;;;9.75;6.07;;;;;;;;;;5043921;28;25064;-70
2023/06/16 00:32:31;;;;;;;8.07;6.10;;;;;;;;;;5064004;28;25099;-71
2023/06/16 00:34:57;;;;;;;13.70;5.97;;;;;;;;;;5059363;28;25089;-71
2023/06/16 00:37:23;;;;;;;10.55;6.05;;;;;;;;;;5056418;28;25056;-71
2023/06/16 00:39:49;;;;;;;16.95;6.50;;;;;;;;;;5065009;28;25058;-71
2023/06/16 00:42:15;;;;;;;8.05;5.60;;;;;;;;;;5057718;28;25123;-71
2023/06/16 00:44:41;;;;;;;11.68;6.50;;;;;;;;;;5045862;28;25121;-71
2023/06/16 00:47:07;;;;;;;13.05;6.55;;;;;;;;;;5059394;28;25066;-70
2023/06/16 00:49:34;;;;;;;9.77;5.78;;;;;;;;;;5063111;28;25089;-71
2023/06/16 00:52:00;;;;;;;11.43;6.40;;;;;;;;;;5058198;28;25070;-71
2023/06/16 00:54:27;;;;;;;13.25;7.20;;;;;;;;;;5056337;28;25065;-70
2023/06/16 00:56:53;;;;;;;15.52;6.25;;;;;;;;;;5065774;28;25094;-71
2023/06/16 00:59:24;;;;;;;15.40;7.28;;;;;;;;;;5063482;28;25125;-70
2023/06/16 01:01:50;;;;;;;11.73;6.73;;;;;;;;;;5064528;28;25131;-70
2023/06/16 01:04:17;;;;;;;9.13;5.88;;;;;;;;;;5058505;28;25065;-71
2023/06/16 01:06:49;;;;;;;12.95;5.97;;;;;;;;;;5064682;28;25040;-71
2023/06/16 01:09:23;;;;;;;17.88;5.38;;;;;;;;;;5062002;28;25134;-71
2023/06/16 01:12:05;;;;;;;17.10;6.25;;;;;;;;;;5063610;28;25152;-69
2023/06/16 01:14:57;;;;;;;9.70;6.45;;;;;;;;;;5059871;28;25146;-70
2023/06/16 01:17:24;;;;;;;9.45;6.50;;;;;;;;;;5026260;28;25091;-71
2023/06/16 01:19:53;;;;;;;15.43;6.63;;;;;;;;;;5065882;28;25091;-71
2023/06/16 01:22:19;;;;;;;11.95;6.82;;;;;;;;;;5064863;28;25055;-71
2023/06/16 01:24:47;;;;;;;11.52;6.63;;;;;;;;;;5057747;28;25107;-70
2023/06/16 01:27:17;;;;;;;12.00;6.80;;;;;;;;;;5061488;28;25124;-70
2023/06/16 01:29:43;;;;;;;13.77;7.25;;;;;;;;;;5066642;28;25105;-70
2023/06/16 01:32:10;;;;;;;15.40;7.65;;;;;;;;;;5064124;28;25075;-72
2023/06/16 01:34:36;;;;;;;13.02;7.60;;;;;;;;;;5060046;28;25071;-71
2023/06/16 01:37:02;;;;;;;9.57;7.00;;;;;;;;;;5045173;28;25056;-70
2023/06/16 01:39:29;;;;;;;12.48;7.32;;;;;;;;;;5068144;28;25146;-71
2023/06/16 01:41:56;;;;;;;13.13;7.85;;;;;;;;;;5072848;28;25065;-70
2023/06/16 01:44:22;;;;;;;10.85;7.18;;;;;;;;;;5060044;28;25140;-70
2023/06/16 01:46:48;;;;;;;9.52;7.03;;;;;;;;;;5065395;28;25058;-71
2023/06/16 01:49:15;;;;;;;8.25;6.18;;;;;;;;;;5067382;28;25134;-71
2023/06/16 01:51:41;;;;;;;11.82;6.95;;;;;;;;;;5069118;28;25110;-73
2023/06/16 01:54:07;;;;;;;10.23;7.22;;;;;;;;;;5060510;28;25084;-70
2023/06/16 01:56:33;;;;;;;14.25;7.80;;;;;;;;;;5059197;28;25161;-70
2023/06/16 01:58:59;;;;;;;9.82;6.68;;;;;;;;;;5055250;28;25058;-72
2023/06/16 02:01:25;;;;;;;10.50;6.78;;;;;;;;;;5056142;28;25063;-69
2023/06/16 02:03:54;;;;;;;14.32;6.50;;;;;;;;;;5071333;28;25080;-72
2023/06/16 02:06:32;;;;;;;17.45;8.05;;;;;;;;;;5049578;28;25188;-71
2023/06/16 02:09:00;;;;;;;14.48;7.57;;;;;;;;;;5065800;28;25105;-71
2023/06/16 02:11:26;;;;;;;11.95;7.65;;;;;;;;;;5066817;28;25071;-70
2023/06/16 02:13:52;;;;;;;11.82;7.95;;;;;;;;;;5069802;28;25070;-72
2023/06/16 02:16:19;;;;;;;15.18;7.78;;;;;;;;;;5067800;28;25068;-72
2023/06/16 02:18:45;;;;;;;12.02;7.75;;;;;;;;;;5062073;28;25102;-70
2023/06/16 02:21:11;;;;;;;11.32;7.50;;;;;;;;;;5060706;28;25105;-73
2023/06/16 02:23:37;;;;;;;10.57;6.97;;;;;;;;;;5070308;28;25115;-72
2023/06/16 02:26:03;;;;;;;12.30;7.47;;;;;;;;;;5053747;28;25059;-69
2023/06/16 02:28:29;;;;;;;12.88;7.78;;;;;;;;;;5065841;28;25139;-71
2023/06/16 02:30:55;;;;;;;10.93;6.90;;;;;;;;;;5062742;28;25056;-71
2023/06/16 02:33:21;;;;;;;12.70;8.20;;;;;;;;;;5069362;28;25065;-71
2023/06/16 02:35:46;;;;;;;9.60;7.13;;;;;;;;;;5060561;28;25066;-71
2023/06/16 02:38:12;;;;;;;12.20;7.03;;;;;;;;;;5072098;28;25174;-72
2023/06/16 02:40:38;;;;;;;9.48;6.50;;;;;;;;;;5066737;28;25073;-71
2023/06/16 02:43:04;;;;;;;10.27;6.72;;;;;;;;;;5069514;28;25089;-70
2023/06/16 02:45:30;;;;;;;12.13;6.75;;;;;;;;;;5069299;28;25078;-71
2023/06/16 02:47:56;;;;;;;12.30;6.72;;;;;;;;;;5066888;28;25086;-71
2023/06/16 02:50:22;;;;;;;12.05;6.93;;;;;;;;;;5061809;28;25049;-70
2023/06/16 02:52:49;;;;;;;13.35;6.32;;;;;;;;;;5059367;28;25069;-71
2023/06/16 02:55:15;;;;;;;10.32;6.55;;;;;;;;;;5064958;28;25054;-71
2023/06/16 02:57:41;;;;;;;8.50;5.78;;;;;;;;;;5065306;28;25053;-71
2023/06/16 03:00:10;;;;;;;12.40;6.70;;;;;;;;;;5064852;28;25075;-71
2023/06/16 03:02:37;;;;;;;10.15;6.15;;;;;;;;;;5061832;28;25062;-71
2023/06/16 03:05:04;;;;;;;8.55;6.25;;;;;;;;;;5064895;28;25122;-70
2023/06/16 03:07:31;;;;;;;9.68;6.47;;;;;;;;;;5042801;28;25064;-70
2023/06/16 03:09:59;;;;;;;13.65;6.20;;;;;;;;;;5066530;28;25061;-71
2023/06/16 03:12:24;;;;;;;11.65;6.00;;;;;;;;;;5067037;28;25078;-71
2023/06/16 03:14:51;;;;;;;13.15;6.07;;;;;;;;;;5056293;28;25075;-71
2023/06/16 03:17:20;;;;;;;11.57;5.97;;;;;;;;;;5066885;28;25089;-72
2023/06/16 03:19:46;;;;;;;9.70;5.60;;;;;;;;;;5072726;28;25062;-70
2023/06/16 03:22:12;;;;;;;10.02;5.70;;;;;;;;;;5065383;28;25072;-71
2023/06/16 03:24:38;;;;;;;9.68;5.28;;;;;;;;;;5053772;28;25142;-70
2023/06/16 03:27:04;;;;;;;9.05;5.88;;;;;;;;;;5066741;28;25068;-70
2023/06/16 03:29:30;;;;;;;7.53;5.13;;;;;;;;;;5070339;28;25130;-71
2023/06/16 03:31:56;;;;;;;8.38;6.07;;;;;;;;;;5057965;28;25071;-71
2023/06/16 03:34:22;;;;;;;8.50;5.93;;;;;;;;;;5065188;28;25075;-71
2023/06/16 03:36:48;;;;;;;10.18;5.90;;;;;;;;;;5061610;28;25076;-71
2023/06/16 03:39:14;;;;;;;8.68;5.25;;;;;;;;;;5061248;28;25146;-71
2023/06/16 03:41:40;;;;;;;8.35;6.20;;;;;;;;;;5076130;28;25074;-72
2023/06/16 03:44:06;;;;;;;10.10;5.43;;;;;;;;;;5067395;28;25092;-71
2023/06/16 03:46:32;;;;;;;11.93;6.03;;;;;;;;;;5066252;28;25058;-70
2023/06/16 03:48:58;;;;;;;9.63;5.47;;;;;;;;;;5064298;28;25133;-73
2023/06/16 03:51:25;;;;;;;10.65;5.00;;;;;;;;;;5065728;28;25072;-70
2023/06/16 03:53:51;;;;;;;9.73;4.88;;;;;;;;;;5055336;28;25059;-72
2023/06/16 03:56:18;;;;;;;8.30;5.32;;;;;;;;;;5067088;28;25099;-72
2023/06/16 03:58:44;;;;;;;9.32;5.75;;;;;;;;;;5069681;28;25069;-71
2023/06/16 04:01:10;;;;;;;10.82;5.45;;;;;;;;;;5073367;28;25092;-72
2023/06/16 04:03:36;;;;;;;9.85;6.03;;;;;;;;;;5050449;28;25063;-72
2023/06/16 04:06:02;;;;;;;11.43;5.85;;;;;;;;;;5061344;28;25072;-72
2023/06/16 04:08:28;;;;;;;6.28;5.13;;;;;;;;;;5062940;28;25066;-72
2023/06/16 04:10:57;;;;;;;12.45;5.90;;;;;;;;;;5058023;28;25059;-72
2023/06/16 04:13:26;;;;;;;11.18;5.38;;;;;;;;;;5064474;28;25138;-71
2023/06/16 04:15:52;;;;;;;10.10;5.55;;;;;;;;;;5039695;28;25126;-71
2023/06/16 04:18:18;;;;;;;6.97;4.90;;;;;;;;;;5054852;28;25103;-72
2023/06/16 04:20:44;;;;;;;9.77;4.65;;;;;;;;;;5081631;28;25086;-70
2023/06/16 04:23:10;;;;;;;7.03;4.70;;;;;;;;;;5075456;28;25099;-71
2023/06/16 04:25:37;;;;;;;6.75;4.72;;;;;;;;;;5083703;28;25064;-72
2023/06/16 04:28:03;;;;;;;12.48;5.18;;;;;;;;;;5078546;28;25056;-73
2023/06/16 04:30:30;;;;;;;8.00;5.03;;;;;;;;;;5063306;28;25099;-70
2023/06/16 04:32:59;;;;;;;6.88;4.55;;;;;;;;;;5069770;28;25138;-71
2023/06/16 04:35:31;;;;;;;7.60;4.65;;;;;;;;;;5071075;28;25066;-72
2023/06/16 04:37:57;;;;;;;7.88;4.50;;;;;;;;;;5086979;28;25082;-70
2023/06/16 04:40:24;;;;;;;6.70;5.10;;;;;;;;;;5072798;28;25050;-71
2023/06/16 04:42:50;;;;;;;7.55;4.60;;;;;;;;;;5056392;28;25067;-72
2023/06/16 04:45:16;;;;;;;11.10;5.50;;;;;;;;;;5059036;28;25123;-72
2023/06/16 04:47:42;;;;;;;6.38;4.55;;;;;;;;;;5062105;28;25073;-73
2023/06/16 04:50:09;;;;;;;7.13;4.72;;;;;;;;;;5060170;28;25128;-73
2023/06/16 04:52:36;;;;;;;7.30;4.80;;;;;;;;;;5062762;28;25102;-71
2023/06/16 04:55:02;;;;;;;6.35;4.88;;;;;;;;;;5046183;28;25050;-73
2023/06/16 04:57:28;;;;;;;9.93;5.18;;;;;;;;;;5062854;28;25065;-73
2023/06/16 04:59:54;;;;;;;8.13;4.25;;;;;;;;;;5065399;28;25076;-72
2023/06/16 05:02:20;;;;;;;9.40;4.85;;;;;;;;;;5055922;28;25077;-73
2023/06/16 05:04:48;;;;;;;6.07;4.05;;;;;;;;;;5041397;28;25136;-73
2023/06/16 05:07:14;;;;;;;11.30;4.80;;;;;;;;;;5062629;28;25062;-74
2023/06/16 05:09:40;;;;;;;12.15;5.00;;;;;;;;;;5076167;28;25059;-72
2023/06/16 05:12:06;;;;;;;7.03;4.78;;;;;;;;;;5078628;28;25069;-71
2023/06/16 05:14:33;;;;;;;9.90;4.00;;;;;;;;;;5067906;28;25082;-73
2023/06/16 05:16:59;;;;;;;8.68;4.75;;;;;;;;;;5068152;28;25072;-72
2023/06/16 05:19:27;;;;;;;7.38;4.65;;;;;;;;;;5078884;28;25057;-73
2023/06/16 05:21:56;;;;;;;9.65;4.32;;;;;;;;;;5079055;28;25057;-72
2023/06/16 05:24:22;;;;;;;10.65;4.97;;;;;;;;;;5054594;28;25076;-72
2023/06/16 05:26:48;;;;;;;10.60;5.20;;;;;;;;;;5070054;28;25063;-72
2023/06/16 05:29:14;;;;;;;8.00;5.05;;;;;;;;;;5061291;28;25075;-73
2023/06/16 05:31:40;;;;;;;7.10;4.88;;;;;;;;;;5073105;28;25152;-73
2023/06/16 05:34:06;;;;;;;9.63;4.40;;;;;;;;;;5068287;28;25066;-73
2023/06/16 05:36:35;;;;;;;11.10;4.93;;;;;;;;;;5074523;28;25143;-72
2023/06/16 05:39:01;;;;;;;7.65;4.60;;;;;;;;;;5064797;28;25151;-73
2023/06/16 05:41:28;;;;;;;7.40;4.85;;;;;;;;;;5061709;28;25082;-73
2023/06/16 05:43:55;;;;;;;9.75;4.93;;;;;;;;;;5061333;28;25062;-73
2023/06/16 05:46:21;;;;;;;9.25;4.90;;;;;;;;;;5063201;28;25078;-72
2023/06/16 05:48:47;;;;;;;8.27;5.43;;;;;;;;;;5064413;28;25088;-71
2023/06/16 05:51:13;;;;;;;9.25;5.07;;;;;;;;;;5061555;28;25164;-73
2023/06/16 05:53:39;;;;;;;13.55;5.10;;;;;;;;;;5062512;28;25068;-73
2023/06/16 05:56:05;;;;;;;12.25;5.63;;;;;;;;;;5069609;28;25090;-71
2023/06/16 05:58:35;;;;;;;8.93;4.90;;;;;;;;;;5067488;28;25137;-73
2023/06/16 06:01:08;;;;;;;10.82;5.30;;;;;;;;;;5063126;28;25072;-72
2023/06/16 06:03:35;;;;;;;11.38;5.20;;;;;;;;;;5055797;28;25083;-72
2023/06/16 06:06:01;;;;;;;10.48;4.90;;;;;;;;;;5042003;28;25081;-73
2023/06/16 06:08:28;;;;;;;10.98;6.50;;;;;;;;;;5068848;28;25062;-71
2023/06/16 06:10:54;;;;;;;13.35;6.03;;;;;;;;;;5062236;28;25051;-73
2023/06/16 06:13:21;;;;;;;9.65;5.45;;;;;;;;;;5067725;28;25047;-71
2023/06/16 06:15:47;;;;;;;10.23;5.78;;;;;;;;;;5069541;28;25130;-73
2023/06/16 06:18:16;;;;;;;9.75;5.72;;;;;;;;;;5061947;28;25087;-71
2023/06/16 06:20:43;;;;;;;11.70;5.90;;;;;;;;;;5066186;28;25057;-72
2023/06/16 06:23:09;;;;;;;10.60;6.00;;;;;;;;;;5053456;28;25092;-73
2023/06/16 06:25:35;;;;;;;10.27;5.95;;;;;;;;;;5074975;28;25064;-72
2023/06/16 06:28:01;;;;;;;9.35;5.85;;;;;;;;;;5061580;28;25122;-72
2023/06/16 06:30:28;;;;;;;8.10;5.50;;;;;;;;;;5060852;28;25060;-72
2023/06/16 06:32:57;;;;;;;10.85;5.75;;;;;;;;;;5041587;28;25194;-71
2023/06/16 06:35:23;;;;;;;10.27;5.45;;;;;;;;;;5055089;28;25051;-72
2023/06/16 06:37:49;;;;;;;8.73;5.78;;;;;;;;;;5066269;28;25080;-72
2023/06/16 06:40:15;;;;;;;12.20;5.45;;;;;;;;;;5064884;28;25064;-70
2023/06/16 06:42:41;;;;;;;9.45;6.22;;;;;;;;;;5067530;28;25071;-71
2023/06/16 06:45:10;;;;;;;13.20;6.07;;;;;;;;;;5066946;28;25180;-72
2023/06/16 06:47:36;;;;;;;11.30;6.55;;;;;;;;;;5059739;28;25146;-71
2023/06/16 06:50:03;;;;;;;8.07;5.13;;;;;;;;;;5068556;28;25067;-72
2023/06/16 06:52:29;;;;;;;14.95;6.05;;;;;;;;;;5058833;28;25088;-72
2023/06/16 06:54:56;;;;;;;11.98;5.28;;;;;;;;;;5074024;28;25064;-72
2023/06/16 06:57:22;;;;;;;8.13;5.50;;;;;;;;;;5063930;28;25077;-72
2023/06/16 06:59:48;;;;;;;7.45;5.00;;;;;;;;;;5071137;28;25069;-72
2023/06/16 07:02:14;;;;;;;8.70;5.43;;;;;;;;;;5060879;28;25168;-72
2023/06/16 07:04:42;;;;;;;10.10;5.75;;;;;;;;;;5071161;28;25054;-74
2023/06/16 07:07:08;;;;;;;11.25;5.68;;;;;;;;;;5056196;28;25162;-71
2023/06/16 07:09:35;;;;;;;7.85;5.53;;;;;;;;;;5066768;28;25081;-72
2023/06/16 07:12:01;;;;;;;16.33;6.13;;;;;;;;;;5067900;28;25056;-72
2023/06/16 07:14:29;;;;;;;9.27;5.30;;;;;;;;;;5066483;28;25052;-73
2023/06/16 07:16:55;;;;;;;7.47;5.03;;;;;;;;;;5065232;28;25130;-73
2023/06/16 07:19:23;;;;;;;10.27;4.57;;;;;;;;;;5072262;28;25060;-73
2023/06/16 07:21:49;;;;;;;6.70;4.55;;;;;;;;;;5073033;28;25072;-72
2023/06/16 07:24:15;;;;;;;6.47;4.40;;;;;;;;;;5058624;28;25085;-71
2023/06/16 07:26:42;;;;;;;6.70;4.95;;;;;;;;;;5073360;28;25132;-74
2023/06/16 07:29:08;;;;;;;5.88;4.40;;;;;;;;;;5066166;28;25069;-73
2023/06/16 07:31:34;;;;;;;6.57;3.92;;;;;;;;;;5057233;28;25077;-71
2023/06/16 07:34:00;;;;;;;8.55;4.82;;;;;;;;;;5062659;28;25077;-73
2023/06/16 07:36:26;;;;;;;6.38;4.30;;;;;;;;;;5067026;28;25120;-71
2023/06/16 07:38:53;;;;;;;8.95;4.22;;;;;;;;;;5063398;28;25075;-70
2023/06/16 07:41:19;;;;;;;5.40;3.90;;;;;;;;;;5038031;28;25085;-72
2023/06/16 07:43:47;;;;;;;7.05;4.40;;;;;;;;;;5066659;28;25065;-71
2023/06/16 07:46:13;;;;;;;5.28;4.43;;;;;;;;;;5062075;28;25161;-72
2023/06/16 07:48:39;;;;;;;6.90;4.38;;;;;;;;;;5070782;28;25076;-71
2023/06/16 07:51:05;;;;;;;4.97;3.78;;;;;;;;;;5039105;28;25103;-72
2023/06/16 07:53:31;;;;;;;3.67;3.13;;;;;;;;;;5059124;28;25169;-72
2023/06/16 07:55:57;;;;;;;6.90;3.88;;;;;;;;;;5068359;28;25121;-72
2023/06/16 07:58:23;;;;;;;5.30;3.65;;;;;;;;;;5062638;28;25109;-71
2023/06/16 08:00:53;;;;;;;5.22;2.92;;;;;;;;;;5061350;28;25090;-72
2023/06/16 08:03:19;;;;;;;6.00;3.80;;;;;;;;;;5053375;28;25060;-73
2023/06/16 08:05:45;;;;;;;7.30;3.95;;;;;;;;;;5043605;28;25087;-74
2023/06/16 08:08:11;;;;;;;5.18;4.10;;;;;;;;;;5043004;28;25103;-76
2023/06/16 08:10:37;;;;;;;4.40;2.83;;;;;;;;;;5042204;28;25106;-73
2023/06/16 08:13:03;;;;;;;5.38;3.17;;;;;;;;;;5063778;28;25107;-73
2023/06/16 08:15:30;;;;;;;4.00;2.95;;;;;;;;;;5056305;28;25111;-75
2023/06/16 08:17:56;;;;;;;5.15;3.05;;;;;;;;;;5058713;28;25094;-75
2023/06/16 08:20:22;;;;;;;3.90;2.67;;;;;;;;;;5056376;28;25089;-73
2023/06/16 08:22:48;;;;;;;8.02;3.17;;;;;;;;;;5060415;28;25175;-73
2023/06/16 08:25:14;;;;;;;3.20;2.83;;;;;;;;;;5065808;28;25155;-74
2023/06/16 08:27:40;;;;;;;4.30;3.00;;;;;;;;;;5068193;28;25082;-76
2023/06/16 08:30:06;;;;;;;7.22;2.80;;;;;;;;;;5065759;28;25120;-75
2023/06/16 08:32:33;;;;;;;3.70;2.85;;;;;;;;;;5066307;28;25084;-72
2023/06/16 08:34:59;;;;;;;6.38;3.13;;;;;;;;;;5068036;28;25106;-74
2023/06/16 08:37:25;;;;;;;7.75;3.10;;;;;;;;;;5071551;28;25081;-74
2023/06/16 08:39:51;;;;;;;4.15;2.70;;;;;;;;;;5068606;28;25043;-74
2023/06/16 08:42:19;;;;;;;4.82;2.15;;;;;;;;;;5060350;28;25082;-72
2023/06/16 08:44:44;;;;;;;6.53;3.78;;;;;;;;;;5040974;28;25071;-73
2023/06/16 08:47:10;;;;;;;5.65;2.95;;;;;;;;;;5060239;28;25074;-72
2023/06/16 08:49:39;;;;;;;6.35;3.10;;;;;;;;;;5059427;28;25062;-74
2023/06/16 08:52:08;;;;;;;4.78;3.28;;;;;;;;;;5061309;28;25071;-74
2023/06/16 08:54:37;;;;;;;4.10;2.83;;;;;;;;;;5052911;28;25057;-73
2023/06/16 08:57:04;;;;;;;5.38;3.08;;;;;;;;;;5053998;28;25070;-73
2023/06/16 08:59:32;;;;;;;5.47;3.00;;;;;;;;;;5053620;28;25053;-73
2023/06/16 09:02:01;;;;;;;3.60;2.92;;;;;;;;;;5034546;28;25167;-74
2023/06/16 09:04:28;;;;;;;6.15;3.28;;;;;;;;;;5038126;28;25068;-74
2023/06/16 09:06:56;;;;;;;7.13;2.90;;;;;;;;;;5040661;28;25093;-74
2023/06/16 09:09:22;;;;;;;5.70;3.35;;;;;;;;;;5046093;28;25077;-74
2023/06/16 09:12:04;;;;;;;8.63;3.05;;;;;;;;;;5054882;28;25076;-74
2023/06/16 09:14:31;;;;;;;4.25;2.97;;;;;;;;;;5031766;28;25118;-74
2023/06/16 09:16:59;;;;;;;4.03;3.20;;;;;;;;;;5038271;28;25050;-74
2023/06/16 09:19:26;;;;;;;4.35;3.08;;;;;;;;;;5038281;28;25065;-74
2023/06/16 09:21:55;;;;;;;7.07;3.22;;;;;;;;;;5036973;28;25135;-72
2023/06/16 09:24:28;;;;;;;3.33;3.03;;;;;;;;;;5038231;28;25168;-73
2023/06/16 09:26:59;;;;;;;5.28;3.20;;;;;;;;;;5044035;28;25090;-73
2023/06/16 09:29:25;;;;;;;4.97;3.15;;;;;;;;;;5041648;28;25073;-73
2023/06/16 09:31:52;;;;;;;2.88;2.67;;;;;;;;;;5034936;28;25138;-73
2023/06/16 09:34:18;;;;;;;5.50;3.10;;;;;;;;;;5054045;28;25089;-76
2023/06/16 09:36:44;;;;;;;4.50;2.70;;;;;;;;;;5042805;28;25072;-73
2023/06/16 09:39:24;;;;;;;3.63;2.92;;;;;;;;;;5040280;28;25058;-74
2023/06/16 09:41:50;;;;;;;4.55;3.00;;;;;;;;;;5045395;28;25106;-73
2023/06/16 09:44:16;;;;;;;4.80;3.20;;;;;;;;;;5024794;28;25158;-74
2023/06/16 09:46:43;;;;;;;5.35;3.10;;;;;;;;;;5052629;28;25086;-73
2023/06/16 09:49:19;;;;;;;4.18;3.00;;;;;;;;;;5038426;28;25061;-73
2023/06/16 09:51:50;;;;;;;3.90;2.88;;;;;;;;;;5034779;28;25065;-74
2023/06/16 09:54:16;;;;;;;5.40;2.90;;;;;;;;;;5032296;28;25054;-75
2023/06/16 09:56:43;;;;;;;3.30;2.60;;;;;;;;;;5041706;28;25068;-72
2023/06/16 09:59:10;;;;;;;8.10;3.33;;;;;;;;;;5031549;28;25129;-76
2023/06/16 10:01:36;;;;;;;5.45;3.38;;;;;;;;;;5036826;28;25107;-74
2023/06/16 10:04:02;;;;;;;3.70;2.88;;;;;;;;;;5039137;28;25163;-74
2023/06/16 10:06:28;;;;;;;4.20;3.08;;;;;;;;;;5042525;28;25118;-75
2023/06/16 10:08:55;;;;;;;5.97;3.42;;;;;;;;;;5048910;28;25072;-75
2023/06/16 10:11:21;;;;;;;5.75;3.38;;;;;;;;;;5040174;28;25130;-74
2023/06/16 10:13:50;;;;;;;5.45;3.30;;;;;;;;;;5044183;28;25139;-73
2023/06/16 10:16:18;;;;;;;4.05;2.80;;;;;;;;;;5041271;28;25150;-75
2023/06/16 10:18:45;;;;;;;6.78;3.40;;;;;;;;;;5044885;28;25065;-74
2023/06/16 10:21:11;;;;;;;7.03;3.47;;;;;;;;;;5042520;28;25097;-75
2023/06/16 10:23:37;;;;;;;3.70;3.33;;;;;;;;;;5049229;28;25068;-73
2023/06/16 10:26:05;;;;;;;6.40;3.50;;;;;;;;;;5051087;28;25082;-75
2023/06/16 10:28:32;;;;;;;5.25;3.20;;;;;;;;;;5056965;28;25073;-73
2023/06/16 10:30:59;;;;;;;6.15;3.50;;;;;;;;;;5054933;28;25062;-71
2023/06/16 10:33:28;;;;;;;4.78;3.13;;;;;;;;;;5046328;28;25164;-74
2023/06/16 10:35:56;;;;;;;3.92;3.17;;;;;;;;;;5065457;28;25049;-75
2023/06/16 10:38:33;;;;;;;5.07;3.08;;;;;;;;;;5082900;28;25067;-76
2023/06/16 10:41:01;;;;;;;5.55;3.35;;;;;;;;;;5073470;28;25062;-76
2023/06/16 10:43:27;;;;;;;4.22;2.90;;;;;;;;;;5066685;28;25071;-72
2023/06/16 10:46:12;;;;;;;4.53;3.05;;;;;;;;;;5044491;28;25074;-70
2023/06/16 10:48:57;;;;;;;4.40;3.17;;;;;;;;;;5046510;28;25074;-72
2023/06/16 10:51:42;;;;;;;4.38;2.75;;;;;;;;;;5039289;28;25073;-72
2023/06/16 10:54:09;;;;;;;6.25;3.35;;;;;;;;;;5050339;28;25054;-74
2023/06/16 10:56:58;;;;;;;4.55;3.13;;;;;;;;;;5049228;28;25115;-74
2023/06/16 10:59:25;;;;;;;13.25;3.80;;;;;;;;;;5036091;28;25092;-72
2023/06/16 11:01:56;;;;;;;3.67;3.03;;;;;;;;;;5049366;28;25067;-76
2023/06/16 11:04:22;;;;;;;3.80;3.30;;;;;;;;;;5040663;28;25067;-72
2023/06/16 11:07:07;;;;;;;6.18;3.13;;;;;;;;;;5049752;28;25085;-73
2023/06/16 11:09:35;;;;;;;4.57;3.22;;;;;;;;;;5044067;28;25066;-75
2023/06/16 11:12:01;;;;;;;3.17;2.75;;;;;;;;;;5039827;28;25132;-73
2023/06/16 11:14:28;;;;;;;5.22;2.95;;;;;;;;;;5046125;28;25062;-73
2023/06/16 11:16:54;;;;;;;5.15;3.15;;;;;;;;;;5053488;28;25074;-74
2023/06/16 11:19:20;;;;;;;5.70;3.30;;;;;;;;;;5041484;28;25073;-74
2023/06/16 11:21:47;;;;;;;5.82;3.00;;;;;;;;;;5044019;28;25145;-73
2023/06/16 11:24:13;;;;;;;3.92;3.05;;;;;;;;;;5053919;28;25064;-73
2023/06/16 11:26:40;;;;;;;4.45;3.35;;;;;;;;;;5050819;28;25069;-72
2023/06/16 11:29:07;;;;;;;7.97;3.40;;;;;;;;;;5046791;28;25073;-71
2023/06/16 11:31:35;;;;;;;3.72;2.80;;;;;;;;;;5045503;28;25071;-72
2023/06/16 11:34:05;;;;;;;4.57;3.17;;;;;;;;;;5043822;28;25074;-74
2023/06/16 11:36:32;;;;;;;6.07;3.67;;;;;;;;;;5040193;28;25063;-73
2023/06/16 11:39:00;;;;;;;3.97;2.90;;;;;;;;;;5043060;28;25066;-76
2023/06/16 11:41:27;;;;;;;7.68;3.40;;;;;;;;;;5049159;28;25080;-73
2023/06/16 11:43:54;;;;;;;9.32;3.00;;;;;;;;;;5046776;28;25091;-72
2023/06/16 11:46:23;;;;;;;4.40;3.03;;;;;;;;;;5045846;28;25055;-74
2023/06/16 11:48:50;;;;;;;3.67;3.10;;;;;;;;;;5053242;28;25096;-74
2023/06/16 11:51:16;;;;;;;4.20;2.78;;;;;;;;;;5054119;28;25080;-73
2023/06/16 11:53:42;;;;;;;3.63;2.85;;;;;;;;;;5040680;28;25115;-74
2023/06/16 11:56:09;;;;;;;6.80;2.83;;;;;;;;;;5050767;28;25058;-75
2023/06/16 11:58:35;;;;;;;4.15;3.25;;;;;;;;;;5054102;28;25063;-72
2023/06/16 12:01:03;;;;;;;4.30;3.28;;;;;;;;;;5064345;28;25061;-73
2023/06/16 12:03:36;;;;;;;3.45;3.10;;;;;;;;;;5056412;28;25126;-74
2023/06/16 12:06:03;;;;;;;4.10;2.92;;;;;;;;;;5044977;28;25059;-72
2023/06/16 12:08:41;;;;;;;3.53;3.00;;;;;;;;;;5045216;28;25137;-74
2023/06/16 12:11:09;;;;;;;5.13;3.00;;;;;;;;;;5044400;28;25094;-74
2023/06/16 12:13:36;;;;;;;6.35;2.90;;;;;;;;;;5046273;28;25073;-74
2023/06/16 12:16:06;;;;;;;3.25;2.63;;;;;;;;;;5039032;28;25077;-73
2023/06/16 12:18:32;;;;;;;4.32;3.03;;;;;;;;;;5042078;28;25106;-75
2023/06/16 12:20:58;;;;;;;4.22;2.80;;;;;;;;;;5036593;28;25053;-73
2023/06/16 12:23:24;;;;;;;3.70;2.92;;;;;;;;;;5039362;28;25090;-76
2023/06/16 12:25:50;;;;;;;6.13;2.78;;;;;;;;;;5045591;28;25120;-73
2023/06/16 12:28:20;;;;;;;4.38;2.70;;;;;;;;;;5040708;28;25103;-72
2023/06/16 12:30:46;;;;;;;3.10;2.80;;;;;;;;;;5038888;28;25061;-73
2023/06/16 12:33:12;;;;;;;6.93;2.85;;;;;;;;;;5033556;28;25132;-74
2023/06/16 12:35:39;;;;;;;3.80;3.05;;;;;;;;;;5039801;28;25072;-74
2023/06/16 12:38:05;;;;;;;7.32;3.50;;;;;;;;;;5040939;28;25079;-72
2023/06/16 12:40:31;;;;;;;4.32;2.90;;;;;;;;;;5030112;28;25080;-73
2023/06/16 12:42:57;;;;;;;5.82;2.97;;;;;;;;;;5041887;28;25073;-74
2023/06/16 12:45:23;;;;;;;4.07;3.17;;;;;;;;;;5038430;28;25143;-74
2023/06/16 12:47:49;;;;;;;6.07;2.78;;;;;;;;;;5045191;28;25062;-74
2023/06/16 12:50:15;;;;;;;4.03;3.08;;;;;;;;;;5047723;28;25142;-73
2023/06/16 12:52:41;;;;;;;3.60;3.30;;;;;;;;;;5041693;28;25075;-74
2023/06/16 12:55:07;;;;;;;4.88;2.78;;;;;;;;;;5041459;28;25086;-75
2023/06/16 12:57:33;;;;;;;4.30;3.03;;;;;;;;;;5037011;28;25079;-75
2023/06/16 12:59:59;;;;;;;6.50;2.95;;;;;;;;;;5045002;28;25053;-74
2023/06/16 13:02:25;;;;;;;3.60;2.60;;;;;;;;;;5043659;28;25064;-72
2023/06/16 13:04:51;;;;;;;5.45;2.80;;;;;;;;;;5043313;28;25060;-73
2023/06/16 13:07:17;;;;;;;7.22;2.90;;;;;;;;;;5035319;28;25057;-73
2023/06/16 13:09:43;;;;;;;4.45;3.20;;;;;;;;;;5057853;28;25070;-76
2023/06/16 13:12:09;;;;;;;3.13;2.80;;;;;;;;;;5049536;28;25056;-74
2023/06/16 13:14:36;;;;;;;3.28;2.88;;;;;;;;;;5044092;28;25100;-74
2023/06/16 13:17:02;;;;;;;6.95;3.05;;;;;;;;;;5044304;28;25185;-76
2023/06/16 13:19:29;;;;;;;2.95;2.42;;;;;;;;;;5041924;28;25076;-75
2023/06/16 13:21:57;;;;;;;4.07;3.00;;;;;;;;;;5047675;28;25055;-73
2023/06/16 13:24:23;;;;;;;9.00;3.00;;;;;;;;;;5034735;28;25096;-73
2023/06/16 13:26:49;;;;;;;3.28;2.70;;;;;;;;;;5038501;28;25117;-74
2023/06/16 13:29:15;;;;;;;3.40;2.60;;;;;;;;;;5035608;28;25041;-76
2023/06/16 13:31:41;;;;;;;3.00;2.70;;;;;;;;;;5037274;28;25079;-74
2023/06/16 13:34:07;;;;;;;5.25;2.88;;;;;;;;;;5035330;28;25096;-74
2023/06/16 13:36:33;;;;;;;4.88;3.35;;;;;;;;;;5039798;28;25055;-73
2023/06/16 13:38:59;;;;;;;4.07;3.28;;;;;;;;;;5035732;28;25063;-75
2023/06/16 13:41:26;;;;;;;4.43;3.35;;;;;;;;;;5042755;28;25111;-73
2023/06/16 13:43:53;;;;;;;5.40;3.25;;;;;;;;;;5046113;28;25064;-74
2023/06/16 13:46:19;;;;;;;3.75;3.33;;;;;;;;;;5046643;28;25066;-74
2023/06/16 13:48:46;;;;;;;4.38;2.92;;;;;;;;;;5048653;28;25139;-73
2023/06/16 13:51:12;;;;;;;4.75;3.22;;;;;;;;;;5046169;28;25176;-72
2023/06/16 13:53:38;;;;;;;3.92;2.90;;;;;;;;;;5055775;28;25092;-74
2023/06/16 13:56:04;;;;;;;4.13;2.70;;;;;;;;;;5043265;28;25058;-74
2023/06/16 13:58:30;;;;;;;3.97;2.95;;;;;;;;;;5049613;28;25091;-73
2023/06/16 14:00:56;;;;;;;3.17;2.88;;;;;;;;;;5047236;28;25137;-74
2023/06/16 14:03:25;;;;;;;3.60;3.25;;;;;;;;;;5040416;28;25071;-73
2023/06/16 14:05:53;;;;;;;3.20;2.35;;;;;;;;;;5043001;28;25184;-75
2023/06/16 14:08:19;;;;;;;4.60;3.28;;;;;;;;;;5040821;28;25051;-73
2023/06/16 14:10:45;;;;;;;4.38;3.10;;;;;;;;;;5048841;28;25052;-72
2023/06/16 14:13:12;;;;;;;5.28;2.92;;;;;;;;;;5044776;28;25093;-73
2023/06/16 14:15:38;;;;;;;5.93;2.70;;;;;;;;;;5040753;28;25162;-72
2023/06/16 14:18:04;;;;;;;3.70;2.63;;;;;;;;;;5050434;28;25075;-73
2023/06/16 14:20:30;;;;;;;2.80;2.50;;;;;;;;;;5065771;28;25100;-75
2023/06/16 14:22:56;;;;;;;6.40;2.85;;;;;;;;;;5047852;28;25122;-74
2023/06/16 14:25:22;;;;;;;4.60;2.55;;;;;;;;;;5039733;28;25046;-72
2023/06/16 14:27:48;;;;;;;3.75;2.63;;;;;;;;;;5039505;28;25142;-74
2023/06/16 14:30:14;;;;;;;5.97;2.78;;;;;;;;;;5055385;28;25061;-75
2023/06/16 14:32:41;;;;;;;5.18;3.10;;;;;;;;;;5055468;28;25075;-75
2023/06/16 14:35:09;;;;;;;4.80;2.65;;;;;;;;;;5056565;28;25051;-74
2023/06/16 14:37:35;;;;;;;4.93;2.67;;;;;;;;;;5046921;28;25073;-73